Terminal Aerodrome Forecast
Issued by NWS Charleston, WV

Current Version | Previous Version | Text Only | Print | Product List | Glossary Off
Versions: 1 2 3 4 5 6 7 8 9 10 11 12 13 14 15 16 17 18 19 20 21 22 23 24 25

062
FTUS41 KRLX 260530
TAFCRW
TAF
KCRW 260530Z 2606/2706 16004KT P6SM BKN100
     FM261400 16006KT P6SM -SHRA BKN045
     FM261700 16009G18KT P6SM -SHRA BKN040
     FM262100 17013G25KT 5SM -SHRA VCTS BKN040CB
     FM270000 17005KT P6SM -SHRA BKN045=

USA.gov is the U.S. government's official web portal to all federal, state and local government web resources and services.